createdAt,value
2022-08-05T02:00:50.389Z,22.43
2022-08-05T02:01:10.982Z,22.46
2022-08-05T02:01:31.960Z,22.45
2022-08-05T02:01:52.277Z,22.47
2022-08-05T02:02:15.959Z,22.47
2022-08-05T02:02:35.879Z,22.46
2022-08-05T02:02:56.445Z,22.47
2022-08-05T02:03:24.286Z,22.45
2022-08-05T02:03:37.585Z,22.49
2022-08-05T02:04:00.378Z,22.49
2022-08-05T02:04:20.959Z,22.49
2022-08-05T02:04:41.354Z,22.45
2022-08-05T02:05:03.066Z,22.46
2022-08-05T02:05:23.793Z,22.47
2022-08-05T02:05:44.188Z,22.49
2022-08-05T02:06:33.631Z,22.45
2022-08-05T02:06:37.755Z,22.49
2022-08-05T02:06:49.665Z,22.47
2022-08-05T02:07:10.252Z,22.47
2022-08-05T02:07:30.675Z,22.46
2022-08-05T02:08:00.331Z,22.45
2022-08-05T02:08:11.641Z,22.40
2022-08-05T02:08:32.224Z,22.40
2022-08-05T02:08:58.340Z,22.37
2022-08-05T02:09:14.734Z,22.36
2022-08-05T02:09:37.019Z,22.35
2022-08-05T02:09:57.423Z,22.31
2022-08-05T02:10:17.982Z,22.25
2022-08-05T02:10:38.379Z,22.25
2022-08-05T02:10:58.975Z,22.20
2022-08-05T02:11:23.653Z,22.18
2022-08-05T02:11:42.234Z,22.15
2022-08-05T02:12:02.978Z,22.18
2022-08-05T02:12:23.567Z,22.17
2022-08-05T02:12:45.902Z,22.17
2022-08-05T02:13:16.242Z,22.18
2022-08-05T02:13:26.705Z,22.17
2022-08-05T02:13:53.856Z,22.20
2022-08-05T02:14:07.691Z,22.17
2022-08-05T02:14:28.028Z,22.18
2022-08-05T02:14:48.610Z,22.21
2022-08-05T02:15:12.436Z,22.20
2022-08-05T02:15:33.487Z,22.18
2022-08-05T02:15:54.667Z,22.18
2022-08-05T02:16:16.561Z,22.21
2022-08-05T02:16:44.124Z,22.21
2022-08-05T02:16:59.590Z,22.21
2022-08-05T02:17:29.869Z,22.24
2022-08-05T02:18:27.608Z,22.22
2022-08-05T02:18:27.759Z,22.20
2022-08-05T02:18:31.857Z,22.20
2022-08-05T02:18:41.925Z,22.18
2022-08-05T02:19:02.679Z,22.18
2022-08-05T02:19:23.080Z,22.17
2022-08-05T02:19:47.531Z,22.17
2022-08-05T02:20:08.330Z,22.12
2022-08-05T02:20:28.907Z,22.09
2022-08-05T02:20:50.277Z,22.09
2022-08-05T02:21:13.231Z,22.06
2022-08-05T02:21:42.978Z,22.05
2022-08-05T02:21:56.387Z,22.03
2022-08-05T02:22:25.324Z,22.02
2022-08-05T02:22:37.379Z,22.00
2022-08-05T02:22:57.772Z,21.99
2022-08-05T02:23:18.354Z,21.99
2022-08-05T02:23:39.898Z,21.98
2022-08-05T02:24:00.478Z,22.02
2022-08-05T02:24:23.359Z,22.00
2022-08-05T02:24:44.060Z,21.99
2022-08-05T02:25:04.462Z,21.99
2022-08-05T02:25:25.045Z,21.99
2022-08-05T02:25:50.099Z,22.02
2022-08-05T02:26:11.727Z,22.03
2022-08-05T02:26:32.418Z,22.03
2022-08-05T02:26:54.202Z,22.06
2022-08-05T02:27:15.510Z,22.06
2022-08-05T02:27:58.620Z,22.09
2022-08-05T02:27:59.319Z,22.07
2022-08-05T02:28:28.912Z,22.07
2022-08-05T02:28:41.736Z,22.10
2022-08-05T02:29:01.256Z,22.09
2022-08-05T02:29:58.207Z,22.10
2022-08-05T02:29:59.914Z,22.10
2022-08-05T02:30:05.410Z,22.12
2022-08-05T02:30:27.358Z,22.10
2022-08-05T02:30:54.439Z,22.10
2022-08-05T02:31:14.433Z,22.10
2022-08-05T02:31:35.510Z,22.06
2022-08-05T02:31:56.094Z,22.05
2022-08-05T02:32:19.840Z,22.06
2022-08-05T02:32:36.878Z,22.06
2022-08-05T02:33:00.628Z,22.02
2022-08-05T02:33:24.587Z,22.06
2022-08-05T02:33:41.611Z,22.03
2022-08-05T02:34:02.399Z,22.03
2022-08-05T02:34:23.152Z,22.03
2022-08-05T02:34:43.735Z,22.03
2022-08-05T02:35:13.414Z,21.99
2022-08-05T02:35:27.970Z,22.02
2022-08-05T02:35:51.018Z,21.99
2022-08-05T02:36:09.618Z,21.99
2022-08-05T02:36:33.970Z,21.94
2022-08-05T02:36:55.759Z,21.99
2022-08-05T02:37:16.403Z,21.94
2022-08-05T02:37:37.790Z,21.96
2022-08-05T02:38:00.123Z,21.92
2022-08-05T02:38:20.897Z,21.92
2022-08-05T02:38:41.302Z,21.96
2022-08-05T02:39:03.849Z,21.96
2022-08-05T02:39:24.285Z,21.94
2022-08-05T02:39:47.716Z,21.91
2022-08-05T02:40:05.272Z,21.92
2022-08-05T02:40:25.996Z,21.91
2022-08-05T02:40:47.979Z,21.92
2022-08-05T02:41:14.810Z,21.90
2022-08-05T02:41:43.051Z,21.92
2022-08-05T02:42:01.319Z,21.94
2022-08-05T02:42:09.790Z,21.91
2022-08-05T02:42:35.996Z,21.94
2022-08-05T02:42:53.033Z,21.96
2022-08-05T02:43:10.985Z,21.96
2022-08-05T02:43:31.572Z,21.92
2022-08-05T02:44:02.443Z,21.96
2022-08-05T02:44:15.533Z,21.98
2022-08-05T02:44:37.006Z,21.98
2022-08-05T02:44:57.644Z,21.98
2022-08-05T02:45:18.224Z,22.00
2022-08-05T02:45:51.643Z,22.02
2022-08-05T02:45:59.210Z,22.02
2022-08-05T02:46:27.576Z,21.99
2022-08-05T02:46:43.912Z,21.99
2022-08-05T02:47:02.501Z,21.99
2022-08-05T02:47:23.065Z,22.03
2022-08-05T02:48:06.825Z,22.00
2022-08-05T02:48:11.617Z,22.03
2022-08-05T02:48:29.277Z,22.02
2022-08-05T02:48:44.500Z,22.02
2022-08-05T02:49:05.083Z,22.00
2022-08-05T02:49:25.479Z,22.06
2022-08-05T02:49:46.528Z,22.02
2022-08-05T02:50:08.381Z,22.02
2022-08-05T02:50:32.369Z,22.03
2022-08-05T02:50:52.942Z,22.05
2022-08-05T02:51:13.573Z,22.03
2022-08-05T02:52:01.141Z,22.02
2022-08-05T02:52:03.806Z,22.03
2022-08-05T02:52:29.500Z,22.07
2022-08-05T02:52:35.712Z,22.05
2022-08-05T02:52:56.295Z,22.03
2022-08-05T02:53:18.907Z,22.05
2022-08-05T02:53:40.488Z,22.06
2022-08-05T02:54:04.082Z,22.07
2022-08-05T02:54:35.726Z,22.05
2022-08-05T02:54:51.178Z,22.06
2022-08-05T02:55:06.571Z,22.03
2022-08-05T02:55:51.896Z,22.07
2022-08-05T02:55:52.233Z,22.07
2022-08-05T02:56:06.792Z,22.07
2022-08-05T02:56:27.512Z,22.05
2022-08-05T02:56:48.095Z,22.09
2022-08-05T02:57:10.077Z,22.09
2022-08-05T02:58:09.833Z,22.06
2022-08-05T02:58:11.771Z,22.03
2022-08-05T02:58:13.237Z,22.00
2022-08-05T02:58:33.910Z,21.99
2022-08-05T02:58:54.494Z,21.99
2022-08-05T02:59:15.071Z,21.94
2022-08-05T02:59:50.105Z,21.92
2022-08-05T02:59:56.056Z,21.91
2022-08-05T03:00:17.227Z,21.90
2022-08-05T03:00:37.807Z,21.88
2022-08-05T03:00:59.584Z,21.86
2022-08-05T03:01:20.462Z,21.84
2022-08-05T03:01:40.902Z,21.83
2022-08-05T03:02:02.929Z,21.82
2022-08-05T03:02:23.189Z,21.86
2022-08-05T03:02:43.767Z,21.82
2022-08-05T03:03:10.348Z,21.75
2022-08-05T03:03:24.583Z,21.77
2022-08-05T03:04:03.277Z,21.75
2022-08-05T03:04:14.091Z,21.72
2022-08-05T03:04:26.257Z,21.71
2022-08-05T03:04:46.845Z,21.72
2022-08-05T03:05:07.256Z,21.72
2022-08-05T03:06:54.728Z,21.74
2022-08-05T03:06:54.852Z,21.74
2022-08-05T03:06:54.852Z,21.74
2022-08-05T03:06:56.030Z,21.74
2022-08-05T03:06:56.648Z,21.71
2022-08-05T03:07:09.898Z,21.75
2022-08-05T03:08:00.244Z,21.74
2022-08-05T03:08:00.559Z,21.74
2022-08-05T03:08:11.431Z,21.74
2022-08-05T03:08:32.196Z,21.74
2022-08-05T03:08:52.591Z,21.74
2022-08-05T03:09:15.721Z,21.80
2022-08-05T03:09:37.634Z,21.77
2022-08-05T03:09:53.623Z,21.77
2022-08-05T03:10:14.016Z,21.74
2022-08-05T03:10:34.597Z,21.74
2022-08-05T03:11:54.769Z,21.72
2022-08-05T03:11:55.381Z,21.71
2022-08-05T03:11:56.372Z,21.68
2022-08-05T03:11:58.222Z,21.69
2022-08-05T03:12:18.953Z,21.67
2022-08-05T03:12:41.476Z,21.67
2022-08-05T03:13:51.896Z,21.65
2022-08-05T03:14:03.351Z,21.67
2022-08-05T03:14:13.509Z,21.67
2022-08-05T03:14:34.313Z,21.65
2022-08-05T03:14:54.719Z,21.62
2022-08-05T03:15:17.383Z,21.65
2022-08-05T03:15:37.965Z,21.69
2022-08-05T03:15:58.797Z,21.67
2022-08-05T03:16:19.381Z,21.68
2022-08-05T03:16:40.804Z,21.67
2022-08-05T03:17:03.338Z,21.68
2022-08-05T03:17:22.168Z,21.69
2022-08-05T03:17:44.845Z,21.71
2022-08-05T03:18:05.500Z,21.72
2022-08-05T03:18:29.966Z,21.74
2022-08-05T03:18:50.797Z,21.74
2022-08-05T03:19:12.959Z,21.71
2022-08-05T03:19:35.860Z,21.75
2022-08-05T03:19:51.975Z,21.75
2022-08-05T03:20:13.605Z,21.75
2022-08-05T03:20:34.407Z,21.75
2022-08-05T03:20:55.015Z,21.77
2022-08-05T03:21:15.970Z,21.77
2022-08-05T03:21:41.587Z,21.79
2022-08-05T03:21:57.187Z,21.77
2022-08-05T03:22:31.869Z,21.80
2022-08-05T03:22:44.226Z,21.80
2022-08-05T03:22:59.900Z,21.79
2022-08-05T03:23:20.472Z,21.83
2022-08-05T03:23:40.868Z,21.82
2022-08-05T03:24:02.444Z,21.80
2022-08-05T03:24:30.103Z,21.79
2022-08-05T03:24:43.459Z,21.82
2022-08-05T03:25:32.011Z,21.82
2022-08-05T03:25:33.054Z,21.80
2022-08-05T03:26:30.486Z,21.83
2022-08-05T03:26:31.500Z,21.83
2022-08-05T03:26:31.516Z,21.82
2022-08-05T03:26:53.082Z,21.83
2022-08-05T03:27:13.658Z,21.84
2022-08-05T03:27:57.860Z,21.80
2022-08-05T03:27:59.118Z,21.83
2022-08-05T03:28:20.988Z,21.83
2022-08-05T03:28:41.904Z,21.80
2022-08-05T03:29:02.488Z,21.83
2022-08-05T03:29:24.250Z,21.82
2022-08-05T03:30:08.275Z,21.80
2022-08-05T03:30:08.483Z,21.83
2022-08-05T03:30:33.601Z,21.84
2022-08-05T03:30:49.736Z,21.80
2022-08-05T03:31:10.129Z,21.82
2022-08-05T03:31:56.962Z,21.82
2022-08-05T03:31:57.417Z,21.82
2022-08-05T03:32:11.377Z,21.79
2022-08-05T03:32:31.951Z,21.79
2022-08-05T03:32:52.530Z,21.80
2022-08-05T03:33:14.270Z,21.79
2022-08-05T03:33:52.903Z,21.79
2022-08-05T03:33:55.900Z,21.77
2022-08-05T03:34:17.411Z,21.75
2022-08-05T03:34:38.582Z,21.77
2022-08-05T03:35:00.741Z,21.75
2022-08-05T03:35:21.388Z,21.75
2022-08-05T03:35:42.006Z,21.77
2022-08-05T03:36:02.923Z,21.75
2022-08-05T03:36:30.171Z,21.74
2022-08-05T03:36:51.225Z,21.69
2022-08-05T03:37:12.913Z,21.67
2022-08-05T03:37:45.709Z,21.68
2022-08-05T03:37:53.702Z,21.65
2022-08-05T03:38:14.601Z,21.64
2022-08-05T03:38:37.368Z,21.61
2022-08-05T03:38:58.243Z,21.58
2022-08-05T03:39:19.887Z,21.58
2022-08-05T03:39:47.412Z,21.56
2022-08-05T03:40:01.442Z,21.54
2022-08-05T03:40:31.212Z,21.54
2022-08-05T03:40:45.103Z,21.56
2022-08-05T03:41:08.543Z,21.54
2022-08-05T03:41:33.212Z,21.56
2022-08-05T03:41:52.607Z,21.53
2022-08-05T03:42:13.260Z,21.54
2022-08-05T03:42:41.556Z,21.53
2022-08-05T03:42:56.995Z,21.54
2022-08-05T03:44:09.178Z,21.54
2022-08-05T03:44:09.202Z,21.52
2022-08-05T03:44:09.235Z,21.52
2022-08-05T03:44:20.011Z,21.54
2022-08-05T03:44:38.988Z,21.53
2022-08-05T03:44:59.821Z,21.56
2022-08-05T03:45:23.506Z,21.58
2022-08-05T03:45:57.347Z,21.56
2022-08-05T03:46:04.669Z,21.58
2022-08-05T03:46:26.832Z,21.59
2022-08-05T03:46:45.522Z,21.59
2022-08-05T03:47:06.892Z,21.61
2022-08-05T03:47:30.479Z,21.64
2022-08-05T03:47:47.882Z,21.64
2022-08-05T03:48:09.912Z,21.64
2022-08-05T03:48:30.340Z,21.67
2022-08-05T03:48:50.891Z,21.67
2022-08-05T03:49:11.562Z,21.65
2022-08-05T03:49:52.123Z,21.68
2022-08-05T03:49:55.834Z,21.68
2022-08-05T03:50:16.416Z,21.67
2022-08-05T03:50:36.999Z,21.65
2022-08-05T03:50:57.580Z,21.67
2022-08-05T03:52:37.864Z,21.67
2022-08-05T03:52:38.697Z,21.64
2022-08-05T03:52:38.978Z,21.69
2022-08-05T03:52:39.423Z,21.68
2022-08-05T03:54:59.177Z,21.71
2022-08-05T03:55:00.072Z,21.71
2022-08-05T03:55:00.423Z,21.69
2022-08-05T03:55:52.466Z,21.69
2022-08-05T03:55:52.580Z,21.69
2022-08-05T03:55:53.008Z,21.71
2022-08-05T03:55:53.544Z,21.68
2022-08-05T03:56:04.692Z,21.71
2022-08-05T03:56:06.048Z,21.69
2022-08-05T03:56:06.065Z,21.71
2022-08-05T03:56:11.002Z,21.74
2022-08-05T03:56:30.528Z,21.74
2022-08-05T03:56:44.491Z,21.75
2022-08-05T03:57:16.582Z,21.72
2022-08-05T03:57:29.240Z,21.75
2022-08-05T03:57:48.162Z,21.74
2022-08-05T03:58:08.934Z,21.74
2022-08-05T03:58:30.520Z,21.77
2022-08-05T03:58:51.176Z,21.77
2022-08-05T03:59:11.827Z,21.77
2022-08-05T03:59:47.022Z,21.75
2022-08-05T03:59:54.473Z,21.75
2022-08-05T04:00:16.485Z,21.79
2022-08-05T04:00:37.192Z,21.75
2022-08-05T04:00:57.627Z,21.79
2022-08-05T04:01:20.781Z,21.77
2022-08-05T04:01:41.666Z,21.79
2022-08-05T04:02:05.814Z,21.82
2022-08-05T04:02:38.646Z,21.79
2022-08-05T04:02:57.820Z,21.79
2022-08-05T04:03:07.425Z,21.77
2022-08-05T04:03:28.905Z,21.82
2022-08-05T04:04:09.367Z,21.80
2022-08-05T04:04:10.976Z,21.83
2022-08-05T04:04:31.597Z,21.83
2022-08-05T04:04:52.178Z,21.82
2022-08-05T04:05:14.720Z,21.80
2022-08-05T04:05:35.337Z,21.82
2022-08-05T04:05:55.918Z,21.83
2022-08-05T04:06:18.204Z,21.83
2022-08-05T04:06:47.729Z,21.82
2022-08-05T04:07:01.515Z,21.80
2022-08-05T04:07:24.774Z,21.82
2022-08-05T04:07:52.860Z,21.80
2022-08-05T04:08:30.372Z,21.83
2022-08-05T04:08:34.982Z,21.82
2022-08-05T04:08:48.527Z,21.82
2022-08-05T04:09:09.180Z,21.80
2022-08-05T04:09:29.979Z,21.82
2022-08-05T04:09:53.762Z,21.83
2022-08-05T04:10:14.476Z,21.84
2022-08-05T04:10:38.111Z,21.83
2022-08-05T04:10:58.916Z,21.86
2022-08-05T04:11:19.525Z,21.83
2022-08-05T04:11:50.712Z,21.83
2022-08-05T04:12:03.645Z,21.88
2022-08-05T04:12:24.857Z,21.86
2022-08-05T04:12:45.522Z,21.88
2022-08-05T04:13:07.233Z,21.88
2022-08-05T04:13:50.084Z,21.90
2022-08-05T04:13:50.938Z,21.88
2022-08-05T04:14:12.020Z,21.86
2022-08-05T04:14:32.424Z,21.88
2022-08-05T04:14:53.005Z,21.90
2022-08-05T04:15:15.573Z,21.90
2022-08-05T04:15:37.279Z,21.90
2022-08-05T04:16:04.597Z,21.88
2022-08-05T04:16:24.085Z,21.92
2022-08-05T04:16:39.058Z,21.92
2022-08-05T04:16:59.666Z,21.90
2022-08-05T04:17:20.217Z,21.91
2022-08-05T04:17:56.091Z,21.90
2022-08-05T04:18:01.207Z,21.86
2022-08-05T04:18:22.645Z,21.86
2022-08-05T04:18:46.135Z,21.84
2022-08-05T04:19:10.486Z,21.90
2022-08-05T04:19:31.322Z,21.86
2022-08-05T04:19:54.571Z,21.88
2022-08-05T04:20:12.277Z,21.90
2022-08-05T04:20:34.742Z,21.84
2022-08-05T04:20:55.136Z,21.90
2022-08-05T04:22:04.943Z,21.91
2022-08-05T04:22:08.894Z,21.88
2022-08-05T04:22:08.964Z,21.88
2022-08-05T04:22:20.447Z,21.86
2022-08-05T04:22:41.782Z,21.88
2022-08-05T04:23:02.189Z,21.86
2022-08-05T04:24:05.147Z,21.84
2022-08-05T04:24:05.305Z,21.83
2022-08-05T04:24:08.856Z,21.86
2022-08-05T04:24:29.729Z,21.83
2022-08-05T04:24:52.824Z,21.86
2022-08-05T04:25:13.662Z,21.86
2022-08-05T04:25:56.984Z,21.86
2022-08-05T04:26:00.662Z,21.88
2022-08-05T04:26:14.873Z,21.88
2022-08-05T04:26:37.953Z,21.90
2022-08-05T04:26:59.488Z,21.91
2022-08-05T04:27:33.086Z,21.90
2022-08-05T04:27:56.658Z,21.90
2022-08-05T04:28:05.770Z,21.94
2022-08-05T04:28:30.985Z,21.91
2022-08-05T04:28:51.957Z,21.91
2022-08-05T04:29:07.112Z,21.92
2022-08-05T04:29:28.099Z,21.91
2022-08-05T04:29:50.419Z,21.94
2022-08-05T04:30:11.400Z,21.98
2022-08-05T04:30:31.982Z,21.98
2022-08-05T04:30:54.370Z,21.99
2022-08-05T04:31:14.948Z,21.99
2022-08-05T04:31:38.699Z,21.99
2022-08-05T04:32:00.022Z,21.99
2022-08-05T04:32:31.165Z,21.98
2022-08-05T04:32:41.448Z,22.00
2022-08-05T04:33:02.782Z,22.00
2022-08-05T04:33:54.716Z,22.03
2022-08-05T04:34:17.510Z,22.03
2022-08-05T04:34:19.715Z,22.02
2022-08-05T04:34:33.427Z,22.06
2022-08-05T04:34:44.980Z,22.05
2022-08-05T04:35:05.891Z,22.03
2022-08-05T04:35:26.495Z,22.05
2022-08-05T04:36:09.419Z,22.07
2022-08-05T04:36:10.840Z,22.06
2022-08-05T04:36:46.570Z,22.06
2022-08-05T04:36:50.176Z,22.09
2022-08-05T04:37:11.054Z,22.12
2022-08-05T04:38:00.979Z,22.10
2022-08-05T04:38:01.559Z,22.09
2022-08-05T04:38:12.436Z,22.09
2022-08-05T04:38:39.568Z,22.10
2022-08-05T04:39:00.792Z,22.07
2022-08-05T04:39:21.725Z,22.10
2022-08-05T04:39:42.468Z,22.12
2022-08-05T04:40:03.095Z,22.09
2022-08-05T04:40:24.187Z,22.12
2022-08-05T04:40:50.673Z,22.12
2022-08-05T04:41:05.176Z,22.15
2022-08-05T04:41:34.127Z,22.12
2022-08-05T04:41:48.500Z,22.14
2022-08-05T04:42:11.445Z,22.18
2022-08-05T04:42:32.117Z,22.15
2022-08-05T04:42:52.704Z,22.14
2022-08-05T04:43:16.624Z,22.17
2022-08-05T04:43:33.683Z,22.18
2022-08-05T04:43:54.266Z,22.18
2022-08-05T04:44:20.984Z,22.18
2022-08-05T04:44:35.872Z,22.17
2022-08-05T04:44:57.173Z,22.18
2022-08-05T04:45:31.054Z,22.21
2022-08-05T04:45:48.777Z,22.20
2022-08-05T04:46:02.323Z,22.20
2022-08-05T04:46:27.858Z,22.20
2022-08-05T04:46:43.357Z,22.24
2022-08-05T04:47:09.778Z,22.25
2022-08-05T04:47:30.826Z,22.22
2022-08-05T04:47:51.235Z,22.25
2022-08-05T04:48:18.387Z,22.25
2022-08-05T04:48:33.387Z,22.25
2022-08-05T04:48:53.970Z,22.25
2022-08-05T04:49:14.772Z,22.28
2022-08-05T04:49:39.042Z,22.30
2022-08-05T04:50:02.895Z,22.30
2022-08-05T04:50:16.237Z,22.30
2022-08-05T04:50:37.494Z,22.27
2022-08-05T04:51:03.722Z,22.31
2022-08-05T04:51:17.453Z,22.31
2022-08-05T04:51:38.544Z,22.31
2022-08-05T04:52:00.454Z,22.37
2022-08-05T04:52:21.252Z,22.35
2022-08-05T04:52:42.003Z,22.37
2022-08-05T04:53:05.357Z,22.37
2022-08-05T04:53:29.011Z,22.37
2022-08-05T04:53:49.157Z,22.39
2022-08-05T04:54:09.830Z,22.39
2022-08-05T04:54:30.381Z,22.37
2022-08-05T04:54:50.971Z,22.43
2022-08-05T04:55:15.095Z,22.40
2022-08-05T04:56:14.625Z,22.43
2022-08-05T04:56:33.934Z,22.42
2022-08-05T04:56:34.897Z,22.43
2022-08-05T04:56:37.514Z,22.45
2022-08-05T04:56:59.806Z,22.45
2022-08-05T04:57:20.397Z,22.49
2022-08-05T04:57:40.973Z,22.46
2022-08-05T04:58:01.376Z,22.49
2022-08-05T04:58:21.841Z,22.51
2022-08-05T04:58:42.177Z,22.52
2022-08-05T04:59:24.147Z,22.52
2022-08-05T04:59:38.546Z,22.58
2022-08-05T04:59:43.554Z,22.57
2022-08-05T05:00:08.564Z,22.57
2022-08-05T05:00:29.181Z,22.60
2022-08-05T05:00:50.996Z,22.58
2022-08-05T05:01:11.654Z,22.62
2022-08-05T05:01:33.653Z,22.61
2022-08-05T05:02:35.046Z,22.64
2022-08-05T05:02:36.203Z,22.62
2022-08-05T05:02:37.225Z,22.64
2022-08-05T05:02:53.946Z,22.62
2022-08-05T05:03:14.560Z,22.67
2022-08-05T05:03:42.072Z,22.68
2022-08-05T05:03:55.347Z,22.65
2022-08-05T05:04:17.414Z,22.64
2022-08-05T05:04:38.122Z,22.67
2022-08-05T05:05:02.276Z,22.67
2022-08-05T05:05:28.944Z,22.68
2022-08-05T05:06:37.051Z,22.68
2022-08-05T05:06:38.738Z,22.65
2022-08-05T05:06:39.325Z,22.68
2022-08-05T05:06:49.154Z,22.70
2022-08-05T05:07:01.350Z,22.68
2022-08-05T05:07:23.954Z,22.68
2022-08-05T05:07:52.966Z,22.68
2022-08-05T05:08:03.773Z,22.68
2022-08-05T05:08:26.709Z,22.73
2022-08-05T05:08:44.846Z,22.72
2022-08-05T05:09:05.639Z,22.73
2022-08-05T05:09:26.224Z,22.68
2022-08-05T05:09:46.812Z,22.68
2022-08-05T05:10:07.390Z,22.72
2022-08-05T05:10:29.614Z,22.73
2022-08-05T05:10:55.728Z,22.73
2022-08-05T05:11:10.882Z,22.73
2022-08-05T05:11:42.023Z,22.73
2022-08-05T05:11:55.658Z,22.73
2022-08-05T05:12:12.018Z,22.70
2022-08-05T05:12:32.588Z,22.73
2022-08-05T05:12:53.171Z,22.73
2022-08-05T05:13:13.748Z,22.76
2022-08-05T05:13:43.525Z,22.75
2022-08-05T05:13:55.167Z,22.73
2022-08-05T05:14:16.034Z,22.73
2022-08-05T05:14:36.870Z,22.73
2022-08-05T05:14:57.451Z,22.76
2022-08-05T05:15:56.546Z,22.75
2022-08-05T05:15:56.739Z,22.73
2022-08-05T05:16:02.036Z,22.75
2022-08-05T05:16:19.713Z,22.77
2022-08-05T05:16:40.399Z,22.76
2022-08-05T05:17:00.982Z,22.77
2022-08-05T05:17:24.536Z,22.77
2022-08-05T05:17:56.205Z,22.77
2022-08-05T05:18:05.893Z,22.77
2022-08-05T05:18:31.098Z,22.76
2022-08-05T05:19:08.976Z,22.77
2022-08-05T05:19:19.300Z,22.80
2022-08-05T05:19:36.992Z,22.79
2022-08-05T05:19:47.886Z,22.80
2022-08-05T05:20:08.469Z,22.77
2022-08-05T05:20:29.106Z,22.82
2022-08-05T05:20:49.767Z,22.82
2022-08-05T05:21:11.041Z,22.85
2022-08-05T05:21:33.113Z,22.82
2022-08-05T05:21:55.603Z,22.83
2022-08-05T05:22:23.406Z,22.82
2022-08-05T05:22:40.953Z,22.83
2022-08-05T05:22:57.090Z,22.83
2022-08-05T05:23:19.889Z,22.85
2022-08-05T05:24:03.667Z,22.83
2022-08-05T05:24:03.696Z,22.85
2022-08-05T05:24:21.564Z,22.85
2022-08-05T05:24:56.310Z,22.88
2022-08-05T05:25:14.810Z,22.88
2022-08-05T05:25:32.653Z,22.88
2022-08-05T05:25:43.356Z,22.88
2022-08-05T05:26:08.342Z,22.91
2022-08-05T05:26:33.034Z,22.91
2022-08-05T05:26:53.688Z,22.91
2022-08-05T05:27:17.442Z,22.90
2022-08-05T05:27:44.544Z,22.92
2022-08-05T05:27:58.427Z,22.92
2022-08-05T05:28:19.012Z,22.94
2022-08-05T05:28:42.851Z,22.94
2022-08-05T05:29:14.224Z,22.91
2022-08-05T05:30:03.586Z,22.92
2022-08-05T05:30:03.787Z,22.95
2022-08-05T05:30:06.919Z,22.98
2022-08-05T05:30:30.854Z,22.95
2022-08-05T05:30:49.763Z,22.98
2022-08-05T05:31:10.485Z,23.01
2022-08-05T05:31:58.385Z,23.00
2022-08-05T05:32:19.364Z,22.98
2022-08-05T05:32:41.684Z,22.98
2022-08-05T05:33:13.943Z,23.04
2022-08-05T05:33:23.732Z,23.01
2022-08-05T05:34:01.753Z,23.04
2022-08-05T05:34:04.319Z,23.05
2022-08-05T05:34:26.667Z,23.05
2022-08-05T05:34:47.700Z,23.05
2022-08-05T05:35:07.827Z,23.04
2022-08-05T05:35:31.610Z,23.05
2022-08-05T05:35:49.632Z,23.04
2022-08-05T05:36:10.209Z,23.07
2022-08-05T05:36:30.901Z,23.09
2022-08-05T05:36:52.196Z,23.10
2022-08-05T05:37:12.781Z,23.09
2022-08-05T05:37:37.467Z,23.09
2022-08-05T05:38:00.230Z,23.10
2022-08-05T05:38:14.757Z,23.12
2022-08-05T05:38:35.164Z,23.10
2022-08-05T05:38:55.814Z,23.10
2022-08-05T05:39:16.432Z,23.13
2022-08-05T05:39:36.816Z,23.15
2022-08-05T05:39:57.745Z,23.12
2022-08-05T05:40:18.456Z,23.15
2022-08-05T05:40:43.822Z,23.13
2022-08-05T05:41:00.803Z,23.17
2022-08-05T05:41:22.268Z,23.19
2022-08-05T05:41:44.499Z,23.19
2022-08-05T05:42:04.889Z,23.17
2022-08-05T05:42:25.484Z,23.20
2022-08-05T05:42:47.073Z,23.20
2022-08-05T05:43:08.675Z,23.20
2022-08-05T05:43:57.154Z,23.23
2022-08-05T05:43:58.579Z,23.27
2022-08-05T05:44:35.680Z,23.23
2022-08-05T05:44:36.656Z,23.23
2022-08-05T05:44:50.867Z,23.25
2022-08-05T05:45:11.620Z,23.28
2022-08-05T05:45:32.015Z,23.27
2022-08-05T05:45:52.598Z,23.31
2022-08-05T05:46:17.709Z,23.27
2022-08-05T05:46:33.590Z,23.28
2022-08-05T05:46:53.993Z,23.32
2022-08-05T05:47:22.072Z,23.31
2022-08-05T05:48:05.321Z,23.33
2022-08-05T05:48:06.501Z,23.32
2022-08-05T05:48:18.003Z,23.32
2022-08-05T05:48:38.410Z,23.36
2022-08-05T05:48:59.940Z,23.33
2022-08-05T05:49:22.497Z,23.33
2022-08-05T05:49:43.297Z,23.39
2022-08-05T05:50:04.227Z,23.39
2022-08-05T05:50:24.831Z,23.40
2022-08-05T05:50:46.424Z,23.40
2022-08-05T05:51:15.496Z,23.40
2022-08-05T05:51:27.807Z,23.40
2022-08-05T05:51:49.950Z,23.42
2022-08-05T05:52:20.194Z,23.40
2022-08-05T05:52:34.793Z,23.42
2022-08-05T05:52:52.195Z,23.40
2022-08-05T05:53:20.993Z,23.42
2022-08-05T05:53:33.183Z,23.42
2022-08-05T05:53:58.079Z,23.46
2022-08-05T05:54:13.995Z,23.43
2022-08-05T05:54:50.607Z,23.46
2022-08-05T05:54:58.015Z,23.48
2022-08-05T05:55:18.759Z,23.47
2022-08-05T05:55:39.342Z,23.48
2022-08-05T05:56:01.385Z,23.50
2022-08-05T05:56:26.195Z,23.53
2022-08-05T05:56:44.160Z,23.53
2022-08-05T05:57:04.557Z,23.51
2022-08-05T05:57:25.146Z,23.54
2022-08-05T05:57:52.813Z,23.55
2022-08-05T05:58:05.786Z,23.57
2022-08-05T05:58:30.246Z,23.58
2022-08-05T05:58:46.771Z,23.57
2022-08-05T05:59:07.757Z,23.61
2022-08-05T05:59:28.753Z,23.58
2022-08-05T05:59:49.351Z,23.58
2022-08-05T06:00:12.916Z,23.66
2022-08-05T06:00:34.173Z,23.63
2022-08-05T06:00:53.893Z,23.66
2022-08-05T06:01:15.154Z,23.66
2022-08-05T06:01:38.107Z,23.66
2022-08-05T06:01:57.853Z,23.68
2022-08-05T06:02:16.909Z,23.70
2022-08-05T06:02:37.881Z,23.69
2022-08-05T06:02:58.441Z,23.70
2022-08-05T06:03:40.537Z,23.72
2022-08-05T06:04:00.890Z,23.73
2022-08-05T06:04:01.984Z,23.73
2022-08-05T06:04:24.330Z,23.73
2022-08-05T06:04:49.195Z,23.75
2022-08-05T06:05:10.506Z,23.76
2022-08-05T06:05:30.376Z,23.79
2022-08-05T06:05:54.146Z,23.79
2022-08-05T06:06:11.049Z,23.79
2022-08-05T06:06:34.698Z,23.83
2022-08-05T06:06:55.559Z,23.84
2022-08-05T06:07:16.016Z,23.83
2022-08-05T06:07:41.515Z,23.85
2022-08-05T06:07:57.833Z,23.87
2022-08-05T06:08:32.487Z,23.90
2022-08-05T06:08:37.773Z,23.91
2022-08-05T06:09:00.306Z,23.90
2022-08-05T06:09:35.378Z,23.91
2022-08-05T06:10:00.169Z,23.94
2022-08-05T06:10:05.780Z,23.94
2022-08-05T06:10:21.884Z,23.93
2022-08-05T06:10:52.533Z,23.94
2022-08-05T06:11:04.735Z,23.94
2022-08-05T06:11:29.065Z,23.97
2022-08-05T06:12:02.006Z,23.95
2022-08-05T06:12:10.449Z,23.97
2022-08-05T06:12:32.695Z,24.00
2022-08-05T06:12:53.963Z,23.98
2022-08-05T06:13:14.564Z,24.02
2022-08-05T06:13:40.851Z,23.98
2022-08-05T06:13:55.599Z,24.00
2022-08-05T06:14:16.145Z,24.02
2022-08-05T06:14:36.528Z,24.00
2022-08-05T06:15:00.735Z,24.02
2022-08-05T06:15:23.940Z,24.00
2022-08-05T06:16:29.706Z,24.08
2022-08-05T06:16:30.333Z,24.05
2022-08-05T06:16:30.546Z,24.06
2022-08-05T06:16:42.922Z,24.08
2022-08-05T06:17:22.190Z,24.08
2022-08-05T06:17:24.523Z,24.06
2022-08-05T06:17:52.692Z,24.08
2022-08-05T06:18:04.550Z,24.06
2022-08-05T06:18:31.286Z,24.08
2022-08-05T06:18:45.529Z,24.09
2022-08-05T06:19:07.918Z,24.09
2022-08-05T06:19:35.293Z,24.09
2022-08-05T06:19:56.970Z,24.10
2022-08-05T06:20:18.709Z,24.12
2022-08-05T06:20:29.870Z,24.13
2022-08-05T06:20:50.454Z,24.15
2022-08-05T06:21:18.549Z,24.12
2022-08-05T06:21:42.215Z,24.15
2022-08-05T06:21:59.785Z,24.15
2022-08-05T06:22:20.798Z,24.13
2022-08-05T06:22:41.378Z,24.10
2022-08-05T06:23:04.014Z,24.13
2022-08-05T06:23:24.761Z,24.15
2022-08-05T06:23:45.344Z,24.15
2022-08-05T06:24:06.099Z,24.13
2022-08-05T06:24:28.345Z,24.12
2022-08-05T06:24:49.530Z,24.09
2022-08-05T06:25:59.717Z,24.12
2022-08-05T06:26:12.219Z,24.13
2022-08-05T06:26:12.919Z,24.13
2022-08-05T06:26:13.538Z,24.10
2022-08-05T06:26:33.783Z,24.08
2022-08-05T06:26:55.685Z,24.09
2022-08-05T06:27:17.190Z,24.10
2022-08-05T06:28:10.446Z,24.08
2022-08-05T06:28:11.204Z,24.10
2022-08-05T06:28:21.275Z,24.09
2022-08-05T06:28:42.387Z,24.09
2022-08-05T06:29:03.704Z,24.06
2022-08-05T06:29:42.789Z,24.06
2022-08-05T06:29:49.268Z,24.08
2022-08-05T06:30:17.887Z,24.08
2022-08-05T06:30:25.205Z,24.06
2022-08-05T06:30:44.971Z,24.05
2022-08-05T06:31:11.046Z,24.03
2022-08-05T06:31:30.612Z,24.02
2022-08-05T06:31:46.879Z,24.00
2022-08-05T06:32:25.393Z,23.95
2022-08-05T06:32:29.137Z,23.97
2022-08-05T06:32:50.830Z,23.95